Historique des mesures à Cassis (13260), France
Quotidien Résumé Mai 8, 2018 Unités:  Métrique    US   Métrique/US
« Précédent (Jour)
Suivant (Jour) »
Quotidien Hebdomadaire Mensuel Annuel Période au choix
  Maximum: Minimum: Moyenne:
Température: TemperatureC °C 17.4 °C 19.5 °C
Point de rosée: DewpointC °C 13.5 °C 14.8 °C
Humidité: Humidity % 66 % 70 %
Vitesse du vent: 0 km/h 0 km/h 3.2 km/h
Rafales: 0 km/h - -
Vent:- - SSW
Pression: PressurehPa hPa 1002.6 hPa -
Précipitations: 0.0 mm    
Historical Graphs
 
 
Mesures pour : Mai 8, 2018
Heure Temperature Point de rosée Pression Vent Vitesse du vent Rafales Humidité Pluie (par heure) Conditions
TemperatureC °C DewpointC °C PressurehPa hPa Calm     Humidity % HourlyPrecipMM mm SoftwareType W/m2
00:10 18.1 °C 15.0 °C 1009.0 hPa Calm   2.3 km/h 82 % 0.0 mm open2300-1.11 W/m2
01:10 18.1 °C 14.4 °C 1008.7 hPa SSE 6.9 km/h 6.9 km/h 79 % 0.0 mm open2300-1.11 W/m2
02:10 17.9 °C 14.2 °C 1008.0 hPa Calm   2.3 km/h 79 % 0.0 mm open2300-1.11 W/m2
03:10 17.5 °C 14.0 °C 1007.7 hPa Calm   5.1 km/h 80 % 0.0 mm open2300-1.11 W/m2
04:10 17.4 °C 14.1 °C 1007.3 hPa NNW 4.7 km/h 9.8 km/h 81 % 0.0 mm open2300-1.11 W/m2
05:10 17.5 °C 13.8 °C 1007.3 hPa ENE 5.1 km/h 5.1 km/h 79 % 0.0 mm open2300-1.11 W/m2
06:10 17.4 °C 13.5 °C 1007.0 hPa Calm     78 % 0.0 mm open2300-1.11 W/m2
07:10 17.6 °C 13.5 °C 1007.0 hPa Calm   3.4 km/h 77 % 0.0 mm open2300-1.11 W/m2
08:10 17.6 °C 13.5 °C 1007.0 hPa Calm   4.2 km/h 77 % 0.0 mm open2300-1.11 W/m2
09:12 18.7 °C 14.2 °C 1006.7 hPa Calm   7.6 km/h 75 % 0.0 mm open2300-1.11 W/m2
10:11 20.1 °C 15.6 °C 1006.7 hPa SE 4.7 km/h 5.1 km/h 75 % 0.0 mm open2300-1.11 W/m2
11:12 21.5 °C 16.7 °C 1006.7 hPa WSW 2.3 km/h 8.9 km/h 74 % 0.0 mm open2300-1.11 W/m2
12:12 24.3 °C 17.8 °C 1006.3 hPa SE 5.6 km/h 9.3 km/h 67 % 0.0 mm open2300-1.11 W/m2
13:11 24.6 °C 17.8 °C 1005.3 hPa SSE 2.3 km/h 17.4 km/h 66 % 0.0 mm open2300-1.11 W/m2
14:11 24.6 °C 18.1 °C 1005.3 hPa East 9.3 km/h 9.3 km/h 67 % 0.0 mm open2300-1.11 W/m2
15:11 24.3 °C 17.8 °C 1005.0 hPa SE 16.3 km/h 16.3 km/h 67 % 0.0 mm open2300-1.11 W/m2
16:11 24.4 °C 17.9 °C 1004.3 hPa Calm   7.6 km/h 67 % 0.0 mm open2300-1.11 W/m2
17:11 23.4 °C 16.9 °C 1003.9 hPa SSE 7.6 km/h 7.6 km/h 67 % 0.0 mm open2300-1.11 W/m2
18:12 22.8 °C 16.6 °C 1003.9 hPa ESE 3.4 km/h 13.2 km/h 68 % 0.0 mm open2300-1.11 W/m2
19:11 21.9 °C 15.9 °C 1003.3 hPa Calm   5.1 km/h 69 % 0.0 mm open2300-1.11 W/m2
20:12 21.3 °C 15.1 °C 1003.3 hPa WNW 6.4 km/h 6.4 km/h 68 % 0.0 mm open2300-1.11 W/m2
21:11 20.2 °C 14.6 °C 1002.9 hPa Calm     70 % 0.0 mm open2300-1.11 W/m2
22:11 18.9 °C 13.9 °C 1002.6 hPa NNW 4.2 km/h 4.2 km/h 73 % 0.0 mm open2300-1.11 W/m2
23:11 18.6 °C 14.1 °C 1002.9 hPa NW 2.3 km/h 3.4 km/h 75 % 0.0 mm open2300-1.11 W/m2
Observations météo à CASSIS
WU-History script by Weather Underground - 1 mb